Amherst, New York
Current Conditions -  °F | °C
As of 12:54 AM on Wednesday 28 Jan 2015 (Local Time) from KBUF Reporting Station
Clear Clear  
Wind Chill:   Ceiling: Unl
Heat Index:   Visibility: 10mi
Dew Point:   Wind: 3mph
Humidity: 83%   Direction: 220°SW
Pressure: 30.1"   Gusts: NA
Location:  43.0271°N, 78.7597°W
Report Text: KBUF 280554Z 22003KT 10SM CLR M13/M16 A3010 RMK AO2 SLP209 4/004 T11331156 11094 21139 50007
Loading
Personal Weather Stations






























Interactive Weather Map New forecast layout! Learn more

10-Day Weather Forecast

Advertisements
Track Severe Weather on mobile